sensor_id;sensor_type;location;lat;lon;timestamp;P1;durP1;ratioP1;P2;durP2;ratioP2
52542;SDS011;38449;52.696;6.186;2023-12-20T00:00:04;10.90;;;2.42;;
52542;SDS011;38449;52.696;6.186;2023-12-20T00:02:31;10.82;;;2.20;;
52542;SDS011;38449;52.696;6.186;2023-12-20T00:04:58;11.82;;;3.45;;
52542;SDS011;38449;52.696;6.186;2023-12-20T00:07:24;9.82;;;2.67;;
52542;SDS011;38449;52.696;6.186;2023-12-20T00:09:50;20.20;;;5.70;;
52542;SDS011;38449;52.696;6.186;2023-12-20T00:12:17;22.25;;;6.00;;
52542;SDS011;38449;52.696;6.186;2023-12-20T00:14:43;31.27;;;8.45;;
52542;SDS011;38449;52.696;6.186;2023-12-20T00:17:09;18.92;;;3.97;;
52542;SDS011;38449;52.696;6.186;2023-12-20T00:19:38;15.25;;;3.17;;
52542;SDS011;38449;52.696;6.186;2023-12-20T00:22:04;10.20;;;2.70;;
52542;SDS011;38449;52.696;6.186;2023-12-20T00:24:30;11.15;;;2.70;;
52542;SDS011;38449;52.696;6.186;2023-12-20T00:26:57;11.68;;;2.50;;
52542;SDS011;38449;52.696;6.186;2023-12-20T00:29:23;7.95;;;2.65;;
52542;SDS011;38449;52.696;6.186;2023-12-20T00:31:49;28.80;;;6.35;;
52542;SDS011;38449;52.696;6.186;2023-12-20T00:34:15;20.58;;;5.53;;
52542;SDS011;38449;52.696;6.186;2023-12-20T00:36:42;11.13;;;3.63;;
52542;SDS011;38449;52.696;6.186;2023-12-20T00:39:08;13.52;;;3.55;;
52542;SDS011;38449;52.696;6.186;2023-12-20T00:41:34;9.75;;;3.05;;
52542;SDS011;38449;52.696;6.186;2023-12-20T00:44:01;14.23;;;4.20;;
52542;SDS011;38449;52.696;6.186;2023-12-20T00:46:27;15.18;;;4.15;;
52542;SDS011;38449;52.696;6.186;2023-12-20T00:48:53;12.00;;;3.90;;
52542;SDS011;38449;52.696;6.186;2023-12-20T00:51:20;15.30;;;3.65;;
52542;SDS011;38449;52.696;6.186;2023-12-20T00:53:46;11.00;;;2.90;;
52542;SDS011;38449;52.696;6.186;2023-12-20T00:56:15;10.48;;;2.40;;
52542;SDS011;38449;52.696;6.186;2023-12-20T00:58:41;13.02;;;3.17;;
52542;SDS011;38449;52.696;6.186;2023-12-20T01:01:07;13.63;;;2.53;;
52542;SDS011;38449;52.696;6.186;2023-12-20T01:03:34;11.68;;;2.80;;
52542;SDS011;38449;52.696;6.186;2023-12-20T01:06:00;11.00;;;2.72;;
52542;SDS011;38449;52.696;6.186;2023-12-20T01:08:26;12.88;;;3.38;;
52542;SDS011;38449;52.696;6.186;2023-12-20T01:10:53;12.35;;;2.55;;
52542;SDS011;38449;52.696;6.186;2023-12-20T01:13:19;15.98;;;3.05;;
52542;SDS011;38449;52.696;6.186;2023-12-20T01:15:45;14.30;;;2.80;;
52542;SDS011;38449;52.696;6.186;2023-12-20T01:18:13;18.92;;;3.88;;
52542;SDS011;38449;52.696;6.186;2023-12-20T01:20:40;15.20;;;3.30;;
52542;SDS011;38449;52.696;6.186;2023-12-20T01:23:06;35.88;;;6.88;;
52542;SDS011;38449;52.696;6.186;2023-12-20T01:25:32;20.88;;;4.65;;
52542;SDS011;38449;52.696;6.186;2023-12-20T01:27:59;30.02;;;7.13;;
52542;SDS011;38449;52.696;6.186;2023-12-20T01:30:25;23.70;;;5.38;;
52542;SDS011;38449;52.696;6.186;2023-12-20T01:32:51;19.08;;;4.20;;
52542;SDS011;38449;52.696;6.186;2023-12-20T01:35:17;18.05;;;5.65;;
52542;SDS011;38449;52.696;6.186;2023-12-20T01:37:44;25.55;;;4.93;;
52542;SDS011;38449;52.696;6.186;2023-12-20T01:40:10;17.10;;;4.38;;
52542;SDS011;38449;52.696;6.186;2023-12-20T01:42:37;23.05;;;4.88;;
52542;SDS011;38449;52.696;6.186;2023-12-20T01:45:03;34.22;;;6.53;;
52542;SDS011;38449;52.696;6.186;2023-12-20T01:47:30;15.82;;;3.55;;
52542;SDS011;38449;52.696;6.186;2023-12-20T01:49:56;14.98;;;3.45;;
52542;SDS011;38449;52.696;6.186;2023-12-20T01:52:23;24.02;;;6.30;;
52542;SDS011;38449;52.696;6.186;2023-12-20T01:54:51;43.58;;;6.30;;
52542;SDS011;38449;52.696;6.186;2023-12-20T01:57:20;37.65;;;6.78;;
52542;SDS011;38449;52.696;6.186;2023-12-20T01:59:47;24.95;;;4.05;;
52542;SDS011;38449;52.696;6.186;2023-12-20T02:02:13;25.85;;;4.72;;
52542;SDS011;38449;52.696;6.186;2023-12-20T02:04:40;8.98;;;1.90;;
52542;SDS011;38449;52.696;6.186;2023-12-20T02:07:06;8.85;;;2.22;;
52542;SDS011;38449;52.696;6.186;2023-12-20T02:09:34;6.03;;;1.77;;
52542;SDS011;38449;52.696;6.186;2023-12-20T02:12:02;14.90;;;2.90;;
52542;SDS011;38449;52.696;6.186;2023-12-20T02:14:30;14.85;;;3.47;;
52542;SDS011;38449;52.696;6.186;2023-12-20T02:16:56;21.45;;;4.63;;
52542;SDS011;38449;52.696;6.186;2023-12-20T02:19:22;26.45;;;5.47;;
52542;SDS011;38449;52.696;6.186;2023-12-20T02:21:49;25.77;;;5.95;;
52542;SDS011;38449;52.696;6.186;2023-12-20T02:24:15;18.20;;;4.22;;
52542;SDS011;38449;52.696;6.186;2023-12-20T02:26:43;23.02;;;4.07;;
52542;SDS011;38449;52.696;6.186;2023-12-20T02:29:09;19.83;;;4.20;;
52542;SDS011;38449;52.696;6.186;2023-12-20T02:31:36;23.70;;;4.75;;
52542;SDS011;38449;52.696;6.186;2023-12-20T02:34:02;20.60;;;4.18;;
52542;SDS011;38449;52.696;6.186;2023-12-20T02:36:29;18.40;;;3.83;;
52542;SDS011;38449;52.696;6.186;2023-12-20T02:38:56;31.33;;;6.40;;
52542;SDS011;38449;52.696;6.186;2023-12-20T02:41:22;45.67;;;7.78;;
52542;SDS011;38449;52.696;6.186;2023-12-20T02:43:48;33.50;;;5.60;;
52542;SDS011;38449;52.696;6.186;2023-12-20T02:46:15;31.38;;;7.60;;
52542;SDS011;38449;52.696;6.186;2023-12-20T02:48:42;25.70;;;6.45;;
52542;SDS011;38449;52.696;6.186;2023-12-20T02:51:09;25.35;;;7.28;;
52542;SDS011;38449;52.696;6.186;2023-12-20T02:53:35;29.77;;;7.25;;
52542;SDS011;38449;52.696;6.186;2023-12-20T02:56:01;29.10;;;6.35;;
52542;SDS011;38449;52.696;6.186;2023-12-20T02:58:28;29.27;;;7.78;;
52542;SDS011;38449;52.696;6.186;2023-12-20T03:00:54;37.10;;;8.25;;
52542;SDS011;38449;52.696;6.186;2023-12-20T03:03:21;25.85;;;5.22;;
52542;SDS011;38449;52.696;6.186;2023-12-20T03:05:48;23.63;;;6.93;;
52542;SDS011;38449;52.696;6.186;2023-12-20T03:08:14;22.98;;;5.72;;
52542;SDS011;38449;52.696;6.186;2023-12-20T03:10:40;14.88;;;4.45;;
52542;SDS011;38449;52.696;6.186;2023-12-20T03:13:07;17.38;;;4.45;;
52542;SDS011;38449;52.696;6.186;2023-12-20T03:15:33;18.15;;;3.92;;
52542;SDS011;38449;52.696;6.186;2023-12-20T03:17:59;18.35;;;3.85;;
52542;SDS011;38449;52.696;6.186;2023-12-20T03:20:26;14.18;;;3.45;;
52542;SDS011;38449;52.696;6.186;2023-12-20T03:22:52;36.22;;;5.57;;
52542;SDS011;38449;52.696;6.186;2023-12-20T03:25:18;30.92;;;7.05;;
52542;SDS011;38449;52.696;6.186;2023-12-20T03:27:45;40.50;;;6.70;;
52542;SDS011;38449;52.696;6.186;2023-12-20T03:30:11;31.88;;;6.53;;
52542;SDS011;38449;52.696;6.186;2023-12-20T03:32:38;22.27;;;5.40;;
52542;SDS011;38449;52.696;6.186;2023-12-20T03:35:04;23.17;;;6.32;;
52542;SDS011;38449;52.696;6.186;2023-12-20T03:37:35;17.63;;;5.28;;
52542;SDS011;38449;52.696;6.186;2023-12-20T03:40:01;17.42;;;4.22;;
52542;SDS011;38449;52.696;6.186;2023-12-20T03:42:29;22.75;;;6.22;;
52542;SDS011;38449;52.696;6.186;2023-12-20T03:44:56;19.25;;;5.78;;
52542;SDS011;38449;52.696;6.186;2023-12-20T03:47:22;28.25;;;5.95;;
52542;SDS011;38449;52.696;6.186;2023-12-20T03:49:48;26.13;;;6.38;;
52542;SDS011;38449;52.696;6.186;2023-12-20T03:52:15;23.20;;;5.38;;
52542;SDS011;38449;52.696;6.186;2023-12-20T03:54:41;22.00;;;5.38;;
52542;SDS011;38449;52.696;6.186;2023-12-20T03:57:08;21.35;;;6.18;;
52542;SDS011;38449;52.696;6.186;2023-12-20T03:59:35;17.02;;;4.70;;
52542;SDS011;38449;52.696;6.186;2023-12-20T04:02:02;18.52;;;6.00;;
52542;SDS011;38449;52.696;6.186;2023-12-20T04:04:29;15.98;;;4.35;;
52542;SDS011;38449;52.696;6.186;2023-12-20T04:06:55;36.83;;;7.68;;
52542;SDS011;38449;52.696;6.186;2023-12-20T04:09:22;16.00;;;4.43;;
52542;SDS011;38449;52.696;6.186;2023-12-20T04:11:48;17.38;;;5.10;;
52542;SDS011;38449;52.696;6.186;2023-12-20T04:14:14;15.68;;;4.65;;
52542;SDS011;38449;52.696;6.186;2023-12-20T04:16:41;15.40;;;4.15;;
52542;SDS011;38449;52.696;6.186;2023-12-20T04:19:08;19.35;;;5.30;;
52542;SDS011;38449;52.696;6.186;2023-12-20T04:21:34;18.33;;;5.40;;
52542;SDS011;38449;52.696;6.186;2023-12-20T04:24:01;17.70;;;4.70;;
52542;SDS011;38449;52.696;6.186;2023-12-20T04:26:27;21.02;;;4.45;;
52542;SDS011;38449;52.696;6.186;2023-12-20T04:28:55;22.52;;;7.32;;
52542;SDS011;38449;52.696;6.186;2023-12-20T04:31:21;22.45;;;6.10;;
52542;SDS011;38449;52.696;6.186;2023-12-20T04:33:47;24.23;;;6.13;;
52542;SDS011;38449;52.696;6.186;2023-12-20T04:36:14;24.17;;;6.22;;
52542;SDS011;38449;52.696;6.186;2023-12-20T04:38:40;24.73;;;6.38;;
52542;SDS011;38449;52.696;6.186;2023-12-20T04:41:06;24.67;;;5.70;;
52542;SDS011;38449;52.696;6.186;2023-12-20T04:43:33;24.58;;;5.28;;
52542;SDS011;38449;52.696;6.186;2023-12-20T04:45:59;24.02;;;5.55;;
52542;SDS011;38449;52.696;6.186;2023-12-20T04:48:25;25.58;;;6.25;;
52542;SDS011;38449;52.696;6.186;2023-12-20T04:50:52;23.45;;;4.90;;
52542;SDS011;38449;52.696;6.186;2023-12-20T04:53:18;29.73;;;6.28;;
52542;SDS011;38449;52.696;6.186;2023-12-20T04:55:45;20.25;;;4.57;;
52542;SDS011;38449;52.696;6.186;2023-12-20T04:58:11;18.58;;;4.53;;
52542;SDS011;38449;52.696;6.186;2023-12-20T05:00:41;14.55;;;4.15;;
52542;SDS011;38449;52.696;6.186;2023-12-20T05:03:07;18.92;;;4.57;;
52542;SDS011;38449;52.696;6.186;2023-12-20T05:05:33;22.02;;;4.80;;
52542;SDS011;38449;52.696;6.186;2023-12-20T05:07:59;26.75;;;5.35;;
52542;SDS011;38449;52.696;6.186;2023-12-20T05:10:26;27.67;;;6.13;;
52542;SDS011;38449;52.696;6.186;2023-12-20T05:12:53;25.50;;;6.80;;
52542;SDS011;38449;52.696;6.186;2023-12-20T05:15:19;25.42;;;6.30;;
52542;SDS011;38449;52.696;6.186;2023-12-20T05:17:45;20.17;;;4.63;;
52542;SDS011;38449;52.696;6.186;2023-12-20T05:20:12;26.83;;;6.22;;
52542;SDS011;38449;52.696;6.186;2023-12-20T05:22:38;25.70;;;5.72;;
52542;SDS011;38449;52.696;6.186;2023-12-20T05:25:04;22.23;;;6.00;;
52542;SDS011;38449;52.696;6.186;2023-12-20T05:27:31;23.02;;;4.88;;
52542;SDS011;38449;52.696;6.186;2023-12-20T05:29:57;17.20;;;5.03;;
52542;SDS011;38449;52.696;6.186;2023-12-20T05:32:23;25.33;;;5.70;;
52542;SDS011;38449;52.696;6.186;2023-12-20T05:34:50;18.67;;;4.90;;
52542;SDS011;38449;52.696;6.186;2023-12-20T05:37:16;24.83;;;5.65;;
52542;SDS011;38449;52.696;6.186;2023-12-20T05:39:42;15.02;;;3.47;;
52542;SDS011;38449;52.696;6.186;2023-12-20T05:42:09;15.18;;;3.47;;
52542;SDS011;38449;52.696;6.186;2023-12-20T05:44:35;18.20;;;6.72;;
52542;SDS011;38449;52.696;6.186;2023-12-20T05:47:02;17.55;;;4.97;;
52542;SDS011;38449;52.696;6.186;2023-12-20T05:49:28;15.90;;;5.07;;
52542;SDS011;38449;52.696;6.186;2023-12-20T05:51:55;16.05;;;3.95;;
52542;SDS011;38449;52.696;6.186;2023-12-20T05:54:21;15.07;;;3.75;;
52542;SDS011;38449;52.696;6.186;2023-12-20T05:56:47;16.38;;;3.83;;
52542;SDS011;38449;52.696;6.186;2023-12-20T05:59:14;15.70;;;4.03;;
52542;SDS011;38449;52.696;6.186;2023-12-20T06:01:40;15.38;;;4.07;;
52542;SDS011;38449;52.696;6.186;2023-12-20T06:04:07;14.25;;;3.97;;
52542;SDS011;38449;52.696;6.186;2023-12-20T06:06:33;14.85;;;4.10;;
52542;SDS011;38449;52.696;6.186;2023-12-20T06:08:59;17.00;;;3.90;;
52542;SDS011;38449;52.696;6.186;2023-12-20T06:11:31;14.70;;;3.72;;
52542;SDS011;38449;52.696;6.186;2023-12-20T06:13:57;15.65;;;5.10;;
52542;SDS011;38449;52.696;6.186;2023-12-20T06:16:23;19.58;;;4.45;;
52542;SDS011;38449;52.696;6.186;2023-12-20T06:18:50;17.88;;;3.85;;
52542;SDS011;38449;52.696;6.186;2023-12-20T06:21:16;16.50;;;3.80;;
52542;SDS011;38449;52.696;6.186;2023-12-20T06:23:42;16.60;;;3.63;;
52542;SDS011;38449;52.696;6.186;2023-12-20T06:26:09;15.23;;;4.40;;
52542;SDS011;38449;52.696;6.186;2023-12-20T06:28:35;15.05;;;4.03;;
52542;SDS011;38449;52.696;6.186;2023-12-20T06:31:01;14.15;;;4.00;;
52542;SDS011;38449;52.696;6.186;2023-12-20T06:33:30;22.38;;;4.65;;
52542;SDS011;38449;52.696;6.186;2023-12-20T06:35:59;15.77;;;4.20;;
52542;SDS011;38449;52.696;6.186;2023-12-20T06:38:26;25.55;;;4.50;;
52542;SDS011;38449;52.696;6.186;2023-12-20T06:40:53;18.60;;;4.00;;
52542;SDS011;38449;52.696;6.186;2023-12-20T06:43:19;18.30;;;3.47;;
52542;SDS011;38449;52.696;6.186;2023-12-20T06:45:46;17.52;;;3.90;;
52542;SDS011;38449;52.696;6.186;2023-12-20T06:48:13;22.05;;;4.85;;
52542;SDS011;38449;52.696;6.186;2023-12-20T06:50:41;18.02;;;3.65;;
52542;SDS011;38449;52.696;6.186;2023-12-20T06:53:08;12.20;;;3.33;;
52542;SDS011;38449;52.696;6.186;2023-12-20T06:55:35;14.00;;;3.63;;
52542;SDS011;38449;52.696;6.186;2023-12-20T06:58:03;15.77;;;3.63;;
52542;SDS011;38449;52.696;6.186;2023-12-20T07:00:30;17.30;;;4.38;;
52542;SDS011;38449;52.696;6.186;2023-12-20T07:02:59;13.77;;;4.25;;
52542;SDS011;38449;52.696;6.186;2023-12-20T07:05:25;16.63;;;3.85;;
52542;SDS011;38449;52.696;6.186;2023-12-20T07:07:52;17.35;;;4.80;;
52542;SDS011;38449;52.696;6.186;2023-12-20T07:10:18;16.20;;;4.28;;
52542;SDS011;38449;52.696;6.186;2023-12-20T07:12:45;16.08;;;4.35;;
52542;SDS011;38449;52.696;6.186;2023-12-20T07:15:11;18.80;;;5.28;;
52542;SDS011;38449;52.696;6.186;2023-12-20T07:17:37;18.10;;;4.40;;
52542;SDS011;38449;52.696;6.186;2023-12-20T07:20:04;24.20;;;4.68;;
52542;SDS011;38449;52.696;6.186;2023-12-20T07:22:33;19.92;;;4.63;;
52542;SDS011;38449;52.696;6.186;2023-12-20T07:24:59;18.83;;;5.28;;
52542;SDS011;38449;52.696;6.186;2023-12-20T07:27:26;20.88;;;5.20;;
52542;SDS011;38449;52.696;6.186;2023-12-20T07:29:52;18.48;;;4.15;;
52542;SDS011;38449;52.696;6.186;2023-12-20T07:32:20;15.18;;;4.10;;
52542;SDS011;38449;52.696;6.186;2023-12-20T07:34:49;16.15;;;4.32;;
52542;SDS011;38449;52.696;6.186;2023-12-20T07:37:16;20.83;;;4.40;;
52542;SDS011;38449;52.696;6.186;2023-12-20T07:39:42;18.05;;;4.10;;
52542;SDS011;38449;52.696;6.186;2023-12-20T07:42:09;23.02;;;4.53;;
52542;SDS011;38449;52.696;6.186;2023-12-20T07:44:37;17.48;;;4.40;;
52542;SDS011;38449;52.696;6.186;2023-12-20T07:47:03;18.52;;;4.40;;
52542;SDS011;38449;52.696;6.186;2023-12-20T07:49:31;20.15;;;5.75;;
52542;SDS011;38449;52.696;6.186;2023-12-20T07:51:57;17.67;;;4.00;;
52542;SDS011;38449;52.696;6.186;2023-12-20T07:54:24;13.05;;;3.53;;
52542;SDS011;38449;52.696;6.186;2023-12-20T07:56:50;17.20;;;4.20;;
52542;SDS011;38449;52.696;6.186;2023-12-20T07:59:16;18.80;;;4.13;;
52542;SDS011;38449;52.696;6.186;2023-12-20T08:01:44;13.30;;;3.47;;
52542;SDS011;38449;52.696;6.186;2023-12-20T08:04:15;19.10;;;4.40;;
52542;SDS011;38449;52.696;6.186;2023-12-20T08:06:41;14.00;;;3.42;;
52542;SDS011;38449;52.696;6.186;2023-12-20T08:09:07;19.17;;;5.00;;
52542;SDS011;38449;52.696;6.186;2023-12-20T08:11:34;18.67;;;3.70;;
52542;SDS011;38449;52.696;6.186;2023-12-20T08:14:00;21.90;;;4.85;;
52542;SDS011;38449;52.696;6.186;2023-12-20T08:16:26;18.25;;;4.22;;
52542;SDS011;38449;52.696;6.186;2023-12-20T08:18:53;22.60;;;4.75;;
52542;SDS011;38449;52.696;6.186;2023-12-20T08:21:20;15.95;;;3.97;;
52542;SDS011;38449;52.696;6.186;2023-12-20T08:23:48;17.15;;;4.80;;
52542;SDS011;38449;52.696;6.186;2023-12-20T08:26:18;18.58;;;4.38;;
52542;SDS011;38449;52.696;6.186;2023-12-20T08:28:46;17.13;;;4.25;;
52542;SDS011;38449;52.696;6.186;2023-12-20T08:31:16;12.40;;;3.13;;
52542;SDS011;38449;52.696;6.186;2023-12-20T08:33:43;20.73;;;4.20;;
52542;SDS011;38449;52.696;6.186;2023-12-20T08:36:10;23.33;;;4.53;;
52542;SDS011;38449;52.696;6.186;2023-12-20T08:38:38;17.65;;;3.38;;
52542;SDS011;38449;52.696;6.186;2023-12-20T08:41:05;17.77;;;3.70;;
52542;SDS011;38449;52.696;6.186;2023-12-20T08:43:34;10.95;;;3.50;;
52542;SDS011;38449;52.696;6.186;2023-12-20T08:46:01;16.90;;;3.67;;
52542;SDS011;38449;52.696;6.186;2023-12-20T08:48:28;19.38;;;3.90;;
52542;SDS011;38449;52.696;6.186;2023-12-20T08:50:54;20.98;;;4.55;;
52542;SDS011;38449;52.696;6.186;2023-12-20T08:53:21;19.48;;;4.32;;
52542;SDS011;38449;52.696;6.186;2023-12-20T08:55:47;13.27;;;3.67;;
52542;SDS011;38449;52.696;6.186;2023-12-20T08:58:14;14.93;;;2.95;;
52542;SDS011;38449;52.696;6.186;2023-12-20T09:00:40;11.45;;;3.65;;
52542;SDS011;38449;52.696;6.186;2023-12-20T09:03:06;18.08;;;3.85;;
52542;SDS011;38449;52.696;6.186;2023-12-20T09:05:34;19.08;;;3.58;;
52542;SDS011;38449;52.696;6.186;2023-12-20T09:08:00;15.48;;;3.67;;
52542;SDS011;38449;52.696;6.186;2023-12-20T09:10:28;14.65;;;3.20;;
52542;SDS011;38449;52.696;6.186;2023-12-20T09:12:54;13.38;;;4.18;;
52542;SDS011;38449;52.696;6.186;2023-12-20T09:15:24;16.65;;;3.40;;
52542;SDS011;38449;52.696;6.186;2023-12-20T09:17:52;13.10;;;2.88;;
52542;SDS011;38449;52.696;6.186;2023-12-20T09:20:19;17.42;;;3.78;;
52542;SDS011;38449;52.696;6.186;2023-12-20T09:22:45;17.45;;;3.83;;
52542;SDS011;38449;52.696;6.186;2023-12-20T09:25:12;13.70;;;3.47;;
52542;SDS011;38449;52.696;6.186;2023-12-20T09:27:39;8.57;;;3.17;;
52542;SDS011;38449;52.696;6.186;2023-12-20T09:30:06;16.35;;;3.65;;
52542;SDS011;38449;52.696;6.186;2023-12-20T09:32:33;12.57;;;4.00;;
52542;SDS011;38449;52.696;6.186;2023-12-20T09:34:59;13.18;;;3.05;;
52542;SDS011;38449;52.696;6.186;2023-12-20T09:37:27;13.57;;;3.50;;
52542;SDS011;38449;52.696;6.186;2023-12-20T09:39:54;15.85;;;4.50;;
52542;SDS011;38449;52.696;6.186;2023-12-20T09:45:08;17.30;;;3.75;;
52542;SDS011;38449;52.696;6.186;2023-12-20T09:47:36;14.40;;;3.65;;
52542;SDS011;38449;52.696;6.186;2023-12-20T09:50:02;13.98;;;3.28;;
52542;SDS011;38449;52.696;6.186;2023-12-20T09:52:29;13.00;;;2.92;;
52542;SDS011;38449;52.696;6.186;2023-12-20T09:54:57;16.00;;;3.88;;
52542;SDS011;38449;52.696;6.186;2023-12-20T09:57:28;17.80;;;4.10;;
52542;SDS011;38449;52.696;6.186;2023-12-20T09:59:54;12.25;;;3.00;;
52542;SDS011;38449;52.696;6.186;2023-12-20T10:02:21;14.48;;;4.13;;
52542;SDS011;38449;52.696;6.186;2023-12-20T10:04:52;16.98;;;3.38;;
52542;SDS011;38449;52.696;6.186;2023-12-20T10:07:18;16.30;;;3.72;;
52542;SDS011;38449;52.696;6.186;2023-12-20T10:09:45;9.90;;;2.40;;
52542;SDS011;38449;52.696;6.186;2023-12-20T10:12:13;16.20;;;4.47;;
52542;SDS011;38449;52.696;6.186;2023-12-20T10:14:39;7.72;;;2.42;;
52542;SDS011;38449;52.696;6.186;2023-12-20T10:17:06;10.68;;;2.70;;
52542;SDS011;38449;52.696;6.186;2023-12-20T10:19:33;10.02;;;2.42;;
52542;SDS011;38449;52.696;6.186;2023-12-20T10:22:00;10.35;;;2.85;;
52542;SDS011;38449;52.696;6.186;2023-12-20T10:24:30;7.38;;;2.00;;
52542;SDS011;38449;52.696;6.186;2023-12-20T10:27:08;10.23;;;2.38;;
52542;SDS011;38449;52.696;6.186;2023-12-20T10:29:37;8.68;;;2.08;;
52542;SDS011;38449;52.696;6.186;2023-12-20T10:32:23;7.53;;;2.63;;
52542;SDS011;38449;52.696;6.186;2023-12-20T10:34:52;9.85;;;2.33;;
52542;SDS011;38449;52.696;6.186;2023-12-20T10:37:22;9.63;;;2.85;;
52542;SDS011;38449;52.696;6.186;2023-12-20T10:39:52;9.38;;;2.40;;
52542;SDS011;38449;52.696;6.186;2023-12-20T10:42:26;9.88;;;1.80;;
52542;SDS011;38449;52.696;6.186;2023-12-20T10:44:53;7.30;;;2.05;;
52542;SDS011;38449;52.696;6.186;2023-12-20T10:47:19;9.75;;;2.25;;
52542;SDS011;38449;52.696;6.186;2023-12-20T10:49:47;11.25;;;2.55;;
52542;SDS011;38449;52.696;6.186;2023-12-20T10:52:15;6.95;;;2.40;;
52542;SDS011;38449;52.696;6.186;2023-12-20T10:54:43;9.60;;;2.28;;
52542;SDS011;38449;52.696;6.186;2023-12-20T10:57:18;8.00;;;1.83;;
52542;SDS011;38449;52.696;6.186;2023-12-20T10:59:45;9.98;;;2.38;;
52542;SDS011;38449;52.696;6.186;2023-12-20T11:02:15;9.60;;;2.03;;
52542;SDS011;38449;52.696;6.186;2023-12-20T11:10:42;6.43;;;2.00;;
52542;SDS011;38449;52.696;6.186;2023-12-20T11:13:34;9.93;;;2.45;;
52542;SDS011;38449;52.696;6.186;2023-12-20T11:16:06;6.97;;;1.58;;
52542;SDS011;38449;52.696;6.186;2023-12-20T11:18:33;9.35;;;1.80;;
52542;SDS011;38449;52.696;6.186;2023-12-20T11:21:04;6.80;;;1.38;;
52542;SDS011;38449;52.696;6.186;2023-12-20T11:23:31;5.85;;;1.45;;
52542;SDS011;38449;52.696;6.186;2023-12-20T11:26:01;5.75;;;1.60;;
52542;SDS011;38449;52.696;6.186;2023-12-20T11:28:30;5.75;;;1.52;;
52542;SDS011;38449;52.696;6.186;2023-12-20T11:30:57;7.35;;;1.67;;
52542;SDS011;38449;52.696;6.186;2023-12-20T11:33:27;7.57;;;2.05;;
52542;SDS011;38449;52.696;6.186;2023-12-20T11:35:57;7.18;;;1.92;;
52542;SDS011;38449;52.696;6.186;2023-12-20T11:38:25;5.30;;;1.70;;
52542;SDS011;38449;52.696;6.186;2023-12-20T11:40:53;7.57;;;1.88;;
52542;SDS011;38449;52.696;6.186;2023-12-20T11:46:20;9.05;;;1.98;;
52542;SDS011;38449;52.696;6.186;2023-12-20T11:48:46;8.43;;;1.85;;
52542;SDS011;38449;52.696;6.186;2023-12-20T11:51:17;8.73;;;1.50;;
52542;SDS011;38449;52.696;6.186;2023-12-20T11:53:43;8.80;;;2.53;;
52542;SDS011;38449;52.696;6.186;2023-12-20T11:56:10;8.32;;;1.73;;
52542;SDS011;38449;52.696;6.186;2023-12-20T11:58:38;7.05;;;2.15;;
52542;SDS011;38449;52.696;6.186;2023-12-20T12:01:04;7.63;;;1.95;;
52542;SDS011;38449;52.696;6.186;2023-12-20T12:03:33;10.13;;;2.40;;
52542;SDS011;38449;52.696;6.186;2023-12-20T12:05:59;7.13;;;2.00;;
52542;SDS011;38449;52.696;6.186;2023-12-20T12:08:26;9.90;;;2.22;;
52542;SDS011;38449;52.696;6.186;2023-12-20T12:10:53;12.07;;;2.20;;
52542;SDS011;38449;52.696;6.186;2023-12-20T12:13:20;9.27;;;2.25;;
52542;SDS011;38449;52.696;6.186;2023-12-20T12:15:47;7.30;;;1.88;;
52542;SDS011;38449;52.696;6.186;2023-12-20T12:18:17;5.22;;;1.52;;
52542;SDS011;38449;52.696;6.186;2023-12-20T12:20:44;6.93;;;1.73;;
52542;SDS011;38449;52.696;6.186;2023-12-20T12:23:12;6.53;;;1.75;;
52542;SDS011;38449;52.696;6.186;2023-12-20T12:25:38;6.60;;;1.65;;
52542;SDS011;38449;52.696;6.186;2023-12-20T12:28:05;7.07;;;2.10;;
52542;SDS011;38449;52.696;6.186;2023-12-20T12:30:31;5.00;;;2.15;;
52542;SDS011;38449;52.696;6.186;2023-12-20T12:32:58;7.85;;;1.70;;
52542;SDS011;38449;52.696;6.186;2023-12-20T12:35:24;5.75;;;2.22;;
52542;SDS011;38449;52.696;6.186;2023-12-20T12:37:51;10.30;;;1.70;;
52542;SDS011;38449;52.696;6.186;2023-12-20T12:40:18;6.60;;;2.13;;
52542;SDS011;38449;52.696;6.186;2023-12-20T12:42:45;6.95;;;1.92;;
52542;SDS011;38449;52.696;6.186;2023-12-20T12:45:12;8.00;;;2.03;;
52542;SDS011;38449;52.696;6.186;2023-12-20T12:47:38;6.00;;;2.00;;
52542;SDS011;38449;52.696;6.186;2023-12-20T12:50:05;5.95;;;2.20;;
52542;SDS011;38449;52.696;6.186;2023-12-20T12:52:31;5.63;;;1.73;;
52542;SDS011;38449;52.696;6.186;2023-12-20T12:54:59;7.40;;;1.83;;
52542;SDS011;38449;52.696;6.186;2023-12-20T12:57:26;4.53;;;1.98;;
52542;SDS011;38449;52.696;6.186;2023-12-20T12:59:52;15.20;;;2.72;;
52542;SDS011;38449;52.696;6.186;2023-12-20T13:02:19;7.95;;;2.17;;
52542;SDS011;38449;52.696;6.186;2023-12-20T13:04:45;7.35;;;2.28;;
52542;SDS011;38449;52.696;6.186;2023-12-20T13:07:12;9.18;;;2.45;;
52542;SDS011;38449;52.696;6.186;2023-12-20T13:09:38;9.27;;;2.15;;
52542;SDS011;38449;52.696;6.186;2023-12-20T13:12:05;14.50;;;3.55;;
52542;SDS011;38449;52.696;6.186;2023-12-20T13:14:34;8.60;;;2.00;;
52542;SDS011;38449;52.696;6.186;2023-12-20T13:17:02;6.82;;;2.17;;
52542;SDS011;38449;52.696;6.186;2023-12-20T13:19:29;6.72;;;2.50;;
52542;SDS011;38449;52.696;6.186;2023-12-20T13:21:56;8.23;;;3.08;;
52542;SDS011;38449;52.696;6.186;2023-12-20T13:24:24;6.57;;;2.50;;
52542;SDS011;38449;52.696;6.186;2023-12-20T13:26:52;4.20;;;1.55;;
52542;SDS011;38449;52.696;6.186;2023-12-20T13:29:18;8.70;;;2.50;;
52542;SDS011;38449;52.696;6.186;2023-12-20T13:31:45;10.18;;;2.78;;
52542;SDS011;38449;52.696;6.186;2023-12-20T13:34:11;9.45;;;2.30;;
52542;SDS011;38449;52.696;6.186;2023-12-20T13:36:40;6.95;;;2.58;;
52542;SDS011;38449;52.696;6.186;2023-12-20T13:39:07;10.68;;;1.92;;
52542;SDS011;38449;52.696;6.186;2023-12-20T13:41:35;11.13;;;2.15;;
52542;SDS011;38449;52.696;6.186;2023-12-20T13:44:03;8.10;;;2.15;;
52542;SDS011;38449;52.696;6.186;2023-12-20T13:46:29;12.95;;;2.92;;
52542;SDS011;38449;52.696;6.186;2023-12-20T13:48:57;6.40;;;2.05;;
52542;SDS011;38449;52.696;6.186;2023-12-20T13:51:23;10.43;;;2.05;;
52542;SDS011;38449;52.696;6.186;2023-12-20T13:53:50;14.00;;;3.40;;
52542;SDS011;38449;52.696;6.186;2023-12-20T13:56:16;14.88;;;4.07;;
52542;SDS011;38449;52.696;6.186;2023-12-20T13:58:42;17.48;;;4.28;;
52542;SDS011;38449;52.696;6.186;2023-12-20T14:01:15;13.13;;;3.72;;
52542;SDS011;38449;52.696;6.186;2023-12-20T14:03:42;15.70;;;4.05;;
52542;SDS011;38449;52.696;6.186;2023-12-20T14:06:10;15.20;;;3.90;;
52542;SDS011;38449;52.696;6.186;2023-12-20T14:08:36;15.18;;;3.70;;
52542;SDS011;38449;52.696;6.186;2023-12-20T14:11:04;12.95;;;3.83;;
52542;SDS011;38449;52.696;6.186;2023-12-20T14:13:31;11.13;;;3.55;;
52542;SDS011;38449;52.696;6.186;2023-12-20T14:15:57;14.70;;;3.50;;
52542;SDS011;38449;52.696;6.186;2023-12-20T14:18:26;11.75;;;3.85;;
52542;SDS011;38449;52.696;6.186;2023-12-20T14:20:52;10.00;;;2.75;;
52542;SDS011;38449;52.696;6.186;2023-12-20T14:23:21;13.77;;;3.15;;
52542;SDS011;38449;52.696;6.186;2023-12-20T14:25:48;13.38;;;3.55;;
52542;SDS011;38449;52.696;6.186;2023-12-20T14:28:15;13.73;;;3.22;;
52542;SDS011;38449;52.696;6.186;2023-12-20T14:30:41;16.20;;;3.10;;
52542;SDS011;38449;52.696;6.186;2023-12-20T14:33:07;12.85;;;4.15;;
52542;SDS011;38449;52.696;6.186;2023-12-20T14:35:34;10.32;;;3.20;;
52542;SDS011;38449;52.696;6.186;2023-12-20T14:38:00;13.50;;;3.13;;
52542;SDS011;38449;52.696;6.186;2023-12-20T14:40:27;9.48;;;2.58;;
52542;SDS011;38449;52.696;6.186;2023-12-20T14:42:53;12.65;;;3.17;;
52542;SDS011;38449;52.696;6.186;2023-12-20T14:45:19;14.52;;;3.35;;
52542;SDS011;38449;52.696;6.186;2023-12-20T14:47:46;11.48;;;2.80;;